createdAt,value
2022-12-05T00:01:40.960Z,-9.13
2022-12-05T00:04:11.557Z,-9.19
2022-12-05T00:06:40.183Z,-9.21
2022-12-05T00:09:08.363Z,-9.25
2022-12-05T00:11:39.148Z,-9.25
2022-12-05T00:14:06.491Z,-9.27
2022-12-05T00:16:33.684Z,-9.31
2022-12-05T00:19:01.363Z,-9.34
2022-12-05T00:21:29.863Z,-9.32
2022-12-05T00:23:57.580Z,-9.30
2022-12-05T00:26:24.775Z,-9.35
2022-12-05T00:28:52.208Z,-9.35
2022-12-05T00:31:23.521Z,-9.36
2022-12-05T00:33:51.452Z,-9.38
2022-12-05T00:36:21.720Z,-9.42
2022-12-05T00:38:48.465Z,-9.40
2022-12-05T00:41:26.499Z,-9.39
2022-12-05T00:43:53.868Z,-9.41
2022-12-05T00:46:25.623Z,-9.43
2022-12-05T00:48:56.485Z,-9.43
2022-12-05T00:51:28.360Z,-9.47
2022-12-05T00:53:57.904Z,-9.45
2022-12-05T00:56:25.375Z,-9.47
2022-12-05T00:58:53.993Z,-9.54
2022-12-05T01:01:36.087Z,-9.48
2022-12-05T01:04:06.102Z,-9.54
2022-12-05T01:06:33.107Z,-9.55
2022-12-05T01:09:00.349Z,-9.50
2022-12-05T01:11:27.855Z,-9.58
2022-12-05T01:13:55.075Z,-9.60
2022-12-05T01:16:30.483Z,-9.55
2022-12-05T01:18:58.781Z,-9.58
2022-12-05T01:21:25.589Z,-9.61
2022-12-05T01:23:52.538Z,-9.65
2022-12-05T01:26:20.806Z,-9.69
2022-12-05T01:28:48.104Z,-9.70
2022-12-05T01:31:26.385Z,-9.72
2022-12-05T01:33:55.199Z,-9.74
2022-12-05T01:36:22.805Z,-9.71
2022-12-05T01:38:49.682Z,-9.64
2022-12-05T01:41:19.330Z,-9.68
2022-12-05T01:43:59.503Z,-9.67
2022-12-05T01:46:27.994Z,-9.70
2022-12-05T01:49:08.237Z,-9.68
2022-12-05T01:51:36.495Z,-9.68
2022-12-05T01:54:04.287Z,-9.64
2022-12-05T01:56:32.930Z,-9.70
2022-12-05T01:59:02.335Z,-9.74
2022-12-05T02:01:28.994Z,-9.75
2022-12-05T02:03:57.687Z,-9.67
2022-12-05T02:06:25.887Z,-9.71
2022-12-05T02:08:53.806Z,-9.71
2022-12-05T02:11:22.006Z,-9.70
2022-12-05T02:14:07.467Z,-9.66
2022-12-05T02:16:55.232Z,-9.71
2022-12-05T02:19:43.943Z,-9.77
2022-12-05T02:22:38.907Z,-9.68
2022-12-05T02:25:11.546Z,-9.75
2022-12-05T02:28:01.432Z,-9.71
2022-12-05T02:30:44.209Z,-9.71
2022-12-05T02:33:24.276Z,-9.76
2022-12-05T02:35:50.916Z,-9.77
2022-12-05T02:38:40.390Z,-9.79
2022-12-05T02:41:19.974Z,-9.78
2022-12-05T02:44:18.655Z,-9.84
2022-12-05T02:46:47.582Z,-9.80
2022-12-05T02:49:18.607Z,-9.79
2022-12-05T02:51:47.949Z,-9.79
2022-12-05T02:54:18.082Z,-9.83
2022-12-05T02:56:46.158Z,-9.89
2022-12-05T02:59:15.174Z,-9.83
2022-12-05T03:01:47.151Z,-9.85
2022-12-05T03:04:14.450Z,-9.81
2022-12-05T03:06:52.067Z,-9.85
2022-12-05T03:09:25.351Z,-9.84
2022-12-05T03:12:00.833Z,-9.83
2022-12-05T03:14:31.020Z,-9.86
2022-12-05T03:17:01.760Z,-9.83
2022-12-05T03:19:44.830Z,-9.88
2022-12-05T03:22:19.338Z,-9.90
2022-12-05T03:24:46.005Z,-9.93
2022-12-05T03:27:25.780Z,-9.95
2022-12-05T03:30:02.183Z,-9.98
2022-12-05T03:32:50.535Z,-9.98
2022-12-05T03:35:44.887Z,-9.97
2022-12-05T03:38:14.867Z,-9.95
2022-12-05T03:41:05.293Z,-9.99
2022-12-05T03:43:31.897Z,-9.99
2022-12-05T03:46:09.648Z,-9.98
2022-12-05T03:48:55.377Z,-9.95
2022-12-05T03:51:22.838Z,-9.97
2022-12-05T03:53:58.900Z,-10.01
2022-12-05T03:56:32.150Z,-10.00
2022-12-05T03:59:05.805Z,-10.03
2022-12-05T04:01:33.670Z,-10.03
2022-12-05T04:04:08.558Z,-10.04
2022-12-05T04:06:38.113Z,-10.04
2022-12-05T04:09:09.167Z,-10.10
2022-12-05T04:11:43.336Z,-10.05
2022-12-05T04:14:23.730Z,-10.07
2022-12-05T04:17:05.336Z,-10.13
2022-12-05T04:20:00.202Z,-10.14
2022-12-05T04:22:27.476Z,-10.06
2022-12-05T04:25:14.859Z,-10.14
2022-12-05T04:27:46.972Z,-10.07
2022-12-05T04:30:19.071Z,-10.10
2022-12-05T04:33:07.440Z,-10.10
2022-12-05T04:35:53.528Z,-10.09
2022-12-05T04:38:49.122Z,-10.17
2022-12-05T04:41:23.785Z,-10.09
2022-12-05T04:43:51.538Z,-10.11
2022-12-05T04:46:19.299Z,-10.11
2022-12-05T04:48:50.099Z,-10.11
2022-12-05T04:51:21.108Z,-10.09
2022-12-05T04:53:51.525Z,-10.15
2022-12-05T04:56:19.323Z,-10.16
2022-12-05T04:58:46.006Z,-10.12
2022-12-05T05:01:18.122Z,-10.12
2022-12-05T05:03:55.092Z,-10.13
2022-12-05T05:06:21.697Z,-10.20
2022-12-05T05:08:51.791Z,-10.12
2022-12-05T05:11:23.940Z,-10.10
2022-12-05T05:13:51.147Z,-10.05
2022-12-05T05:16:21.229Z,-10.02
2022-12-05T05:18:49.119Z,-9.95
2022-12-05T05:21:33.837Z,-9.92
2022-12-05T05:24:00.665Z,-9.91
2022-12-05T05:26:28.844Z,-9.88
2022-12-05T05:28:57.660Z,-9.83
2022-12-05T05:31:24.695Z,-9.82
2022-12-05T05:33:52.926Z,-9.83
2022-12-05T05:36:20.407Z,-9.79
2022-12-05T05:38:49.624Z,-9.77
2022-12-05T05:41:20.969Z,-9.72
2022-12-05T05:43:48.218Z,-9.72
2022-12-05T05:46:16.684Z,-9.70
2022-12-05T05:48:43.378Z,-9.69
2022-12-05T05:51:11.580Z,-9.65
2022-12-05T05:53:38.690Z,-9.53
2022-12-05T05:56:07.261Z,-9.52
2022-12-05T05:58:33.941Z,-9.44
2022-12-05T06:01:14.610Z,-9.46
2022-12-05T06:03:41.477Z,-9.43
2022-12-05T06:06:10.771Z,-9.35
2022-12-05T06:08:39.842Z,-9.38
2022-12-05T06:11:25.214Z,-9.37
2022-12-05T06:13:53.985Z,-9.30
2022-12-05T06:16:21.440Z,-9.32
2022-12-05T06:18:49.876Z,-9.26
2022-12-05T06:21:16.863Z,-9.27
2022-12-05T06:23:43.556Z,-9.25
2022-12-05T06:26:12.642Z,-9.14
2022-12-05T06:28:40.022Z,-9.20
2022-12-05T06:31:11.617Z,-9.21
2022-12-05T06:33:38.848Z,-9.19
2022-12-05T06:36:11.876Z,-9.37
2022-12-05T06:38:42.007Z,-9.16
2022-12-05T06:41:11.735Z,-9.07
2022-12-05T06:43:38.471Z,-9.01
2022-12-05T06:46:06.456Z,-9.03
2022-12-05T06:48:33.223Z,-9.09
2022-12-05T06:51:00.538Z,-9.05
2022-12-05T06:53:28.091Z,-9.08
2022-12-05T06:56:01.596Z,-8.82
2022-12-05T06:58:28.928Z,-9.10
2022-12-05T07:01:13.955Z,-8.75
2022-12-05T07:03:40.770Z,-8.75
2022-12-05T07:06:08.400Z,-8.84
2022-12-05T07:08:35.393Z,-8.87
2022-12-05T07:11:03.317Z,-9.05
2022-12-05T07:13:30.126Z,-8.88
2022-12-05T07:15:59.104Z,-8.94
2022-12-05T07:18:26.663Z,-8.71
2022-12-05T07:21:15.939Z,-8.61
2022-12-05T07:23:44.948Z,-8.64
2022-12-05T07:26:14.315Z,-8.79
2022-12-05T07:28:41.102Z,-8.71
2022-12-05T07:31:13.473Z,-8.69
2022-12-05T07:33:40.360Z,-8.70
2022-12-05T07:36:13.453Z,-8.65
2022-12-05T07:38:40.831Z,-8.79
2022-12-05T07:41:13.744Z,-8.87
2022-12-05T07:43:41.384Z,-8.57
2022-12-05T07:46:08.918Z,-8.69
2022-12-05T07:48:35.713Z,-8.63
2022-12-05T07:51:03.625Z,-8.28
2022-12-05T07:53:30.938Z,-8.08
2022-12-05T07:56:02.161Z,-8.17
2022-12-05T07:58:29.715Z,-8.28
2022-12-05T08:00:57.109Z,-8.28
2022-12-05T08:03:23.841Z,-8.36
2022-12-05T08:05:50.580Z,-8.35
2022-12-05T08:08:17.392Z,-8.37
2022-12-05T08:10:44.168Z,-8.30
2022-12-05T08:13:10.801Z,-8.31
2022-12-05T08:15:37.436Z,-8.47
2022-12-05T08:18:04.219Z,-8.52
2022-12-05T08:20:31.066Z,-8.57
2022-12-05T08:22:57.962Z,-8.31
2022-12-05T08:25:24.774Z,-8.32
2022-12-05T08:27:51.490Z,-8.24
2022-12-05T08:30:18.506Z,-8.12
2022-12-05T08:32:45.218Z,-8.09
2022-12-05T08:35:11.821Z,-8.05
2022-12-05T08:37:38.428Z,-7.91
2022-12-05T08:40:05.827Z,-8.00
2022-12-05T08:42:32.571Z,-7.90
2022-12-05T08:44:59.531Z,-8.04
2022-12-05T08:47:26.680Z,-8.01
2022-12-05T08:49:53.542Z,-7.79
2022-12-05T08:52:21.918Z,-7.62
2022-12-05T08:54:48.590Z,-7.34
2022-12-05T08:57:15.241Z,-7.62
2022-12-05T08:59:41.899Z,-7.81
2022-12-05T09:02:10.028Z,-7.91
2022-12-05T09:04:36.779Z,-7.91
2022-12-05T09:07:03.815Z,-7.73
2022-12-05T09:09:30.437Z,-7.87
2022-12-05T09:11:57.961Z,-7.52
2022-12-05T09:14:24.703Z,-7.47
2022-12-05T09:16:51.417Z,-7.46
2022-12-05T09:19:24.995Z,-7.63
2022-12-05T09:21:51.659Z,-7.53
2022-12-05T09:24:18.347Z,-7.64
2022-12-05T09:26:45.118Z,-7.74
2022-12-05T09:29:17.065Z,-7.69
2022-12-05T09:31:45.213Z,-7.62
2022-12-05T09:34:14.283Z,-7.68
2022-12-05T09:36:41.487Z,-7.54
2022-12-05T09:39:08.463Z,-7.49
2022-12-05T09:42:05.472Z,-7.63
2022-12-05T09:44:57.816Z,-7.33
2022-12-05T09:47:27.931Z,-7.23
2022-12-05T09:50:13.921Z,-7.34
2022-12-05T09:53:02.581Z,-7.53
2022-12-05T09:55:42.082Z,-7.54
2022-12-05T09:58:29.258Z,-7.48
2022-12-05T10:01:14.080Z,-7.37
2022-12-05T10:03:56.750Z,-7.46
2022-12-05T10:06:27.171Z,-7.20
2022-12-05T10:09:21.324Z,-7.04
2022-12-05T10:11:55.620Z,-7.03
2022-12-05T10:14:31.351Z,-7.09
2022-12-05T10:17:04.165Z,-7.10
2022-12-05T10:19:34.689Z,-6.98
2022-12-05T10:22:11.453Z,-7.11
2022-12-05T10:24:44.940Z,-7.14
2022-12-05T10:27:20.971Z,-7.22
2022-12-05T10:30:14.183Z,-7.20
2022-12-05T10:32:53.663Z,-7.05
2022-12-05T10:35:23.341Z,-6.86
2022-12-05T10:37:58.832Z,-6.98
2022-12-05T10:40:35.853Z,-7.27
2022-12-05T10:43:03.038Z,-7.10
2022-12-05T10:45:29.677Z,-6.97
2022-12-05T10:47:57.476Z,-6.85
2022-12-05T10:50:29.966Z,-7.14
2022-12-05T10:52:58.958Z,-6.94
2022-12-05T10:55:30.482Z,-7.00
2022-12-05T10:58:35.528Z,-7.05
2022-12-05T11:01:09.939Z,-7.05
2022-12-05T11:03:38.770Z,-6.84
2022-12-05T11:06:29.536Z,-7.09
2022-12-05T11:09:06.179Z,-6.95
2022-12-05T11:11:34.261Z,-7.07
2022-12-05T11:14:04.079Z,-7.09
2022-12-05T11:16:36.617Z,-7.20
2022-12-05T11:19:31.450Z,-7.18
2022-12-05T11:21:58.811Z,-7.04
2022-12-05T11:24:33.626Z,-6.97
2022-12-05T11:27:16.860Z,-6.57
2022-12-05T11:30:09.679Z,-6.85
2022-12-05T11:32:36.316Z,-6.80
2022-12-05T11:35:12.008Z,-6.84
2022-12-05T11:37:44.879Z,-6.80
2022-12-05T11:40:17.369Z,-6.84
2022-12-05T11:43:02.239Z,-6.77
2022-12-05T11:45:44.442Z,-6.59
2022-12-05T11:48:17.024Z,-6.56
2022-12-05T11:50:49.652Z,-6.58
2022-12-05T11:53:50.539Z,-6.61
2022-12-05T11:56:29.080Z,-6.32
2022-12-05T11:59:20.774Z,-6.66
2022-12-05T12:01:51.921Z,-6.86
2022-12-05T12:04:24.391Z,-6.70
2022-12-05T12:07:22.261Z,-6.96
2022-12-05T12:10:09.503Z,-7.08
2022-12-05T12:12:52.500Z,-7.20
2022-12-05T12:15:37.328Z,-7.25
2022-12-05T12:18:16.559Z,-7.16
2022-12-05T12:20:49.058Z,-7.31
2022-12-05T12:23:30.966Z,-7.12
2022-12-05T12:26:25.133Z,-7.07
2022-12-05T12:29:19.176Z,-7.36
2022-12-05T12:31:56.122Z,-7.28
2022-12-05T12:35:00.097Z,-7.32
2022-12-05T12:37:39.344Z,-7.30
2022-12-05T12:40:18.608Z,-7.25
2022-12-05T12:47:02.863Z,-7.51
2022-12-05T12:49:54.399Z,-7.51
2022-12-05T12:52:27.041Z,-7.51
2022-12-05T12:55:07.669Z,-7.40
2022-12-05T12:57:58.232Z,-7.31
2022-12-05T13:00:40.164Z,-7.40
2022-12-05T13:03:33.098Z,-7.46
2022-12-05T13:06:05.002Z,-7.52
2022-12-05T13:08:53.133Z,-7.54
2022-12-05T13:11:20.663Z,-7.55
2022-12-05T13:13:53.463Z,-7.36
2022-12-05T13:16:27.131Z,-7.53
2022-12-05T13:18:55.699Z,-7.60
2022-12-05T13:21:22.978Z,-7.58
2022-12-05T13:23:52.447Z,-7.57
2022-12-05T13:26:19.174Z,-7.60
2022-12-05T13:28:57.672Z,-7.57
2022-12-05T13:31:42.644Z,-7.63
2022-12-05T13:34:29.579Z,-7.62
2022-12-05T13:37:16.316Z,-7.57
2022-12-05T13:40:09.578Z,-7.61
2022-12-05T13:42:37.993Z,-7.57
2022-12-05T13:45:04.947Z,-7.51
2022-12-05T13:47:33.411Z,-7.55
2022-12-05T13:50:43.306Z,-7.57
2022-12-05T13:53:26.573Z,-7.54
2022-12-05T13:56:02.569Z,-7.56
2022-12-05T13:58:49.601Z,-7.65
2022-12-05T14:01:25.792Z,-7.69
2022-12-05T14:03:52.926Z,-7.74
2022-12-05T14:06:35.069Z,-7.78
2022-12-05T14:09:03.205Z,-7.87
2022-12-05T14:11:30.071Z,-7.94
2022-12-05T14:14:03.802Z,-7.92
2022-12-05T14:16:31.245Z,-7.93
2022-12-05T14:19:05.526Z,-7.97
2022-12-05T14:21:44.351Z,-7.94
2022-12-05T14:24:28.380Z,-7.97
2022-12-05T14:26:54.971Z,-7.90
2022-12-05T14:30:03.005Z,-8.10
2022-12-05T14:32:32.020Z,-8.03
2022-12-05T14:35:01.765Z,-8.02
2022-12-05T14:37:30.868Z,-8.02
2022-12-05T14:40:03.207Z,-8.01
2022-12-05T14:42:42.610Z,-8.05
2022-12-05T14:45:30.618Z,-8.03
2022-12-05T14:48:02.273Z,-8.00
2022-12-05T14:50:44.453Z,-8.07
2022-12-05T14:53:18.703Z,-8.00
2022-12-05T14:55:50.130Z,-8.02
2022-12-05T14:58:26.663Z,-8.07
2022-12-05T15:01:07.645Z,-8.06
2022-12-05T15:03:43.331Z,-8.10
2022-12-05T15:06:15.918Z,-8.08
2022-12-05T15:08:47.314Z,-8.07
2022-12-05T15:11:28.454Z,-8.07
2022-12-05T15:14:10.410Z,-8.06
2022-12-05T15:16:38.595Z,-8.02
2022-12-05T15:19:09.522Z,-8.07
2022-12-05T15:21:39.470Z,-8.12
2022-12-05T15:24:12.910Z,-8.08
2022-12-05T15:26:48.970Z,-8.07
2022-12-05T15:29:25.608Z,-8.05
2022-12-05T15:32:17.718Z,-8.05
2022-12-05T15:35:00.206Z,-8.12
2022-12-05T15:38:01.312Z,-8.13
2022-12-05T15:40:37.413Z,-8.16
2022-12-05T15:43:27.467Z,-8.11
2022-12-05T15:46:28.237Z,-8.13
2022-12-05T15:48:56.890Z,-8.19
2022-12-05T15:51:37.624Z,-8.12
2022-12-05T15:54:24.909Z,-8.11
2022-12-05T15:57:06.525Z,-8.14
2022-12-05T15:59:37.950Z,-8.20
2022-12-05T16:02:12.867Z,-8.16
2022-12-05T16:04:47.219Z,-8.14
2022-12-05T16:07:15.663Z,-8.20
2022-12-05T16:09:44.652Z,-8.18
2022-12-05T16:12:26.579Z,-8.22
2022-12-05T16:15:01.080Z,-8.20
2022-12-05T16:17:30.813Z,-8.27
2022-12-05T16:20:15.941Z,-8.22
2022-12-05T16:22:48.128Z,-8.34
2022-12-05T16:25:27.540Z,-8.33
2022-12-05T16:28:01.633Z,-8.42
2022-12-05T16:30:29.249Z,-8.47
2022-12-05T16:33:00.992Z,-8.57
2022-12-05T16:35:33.834Z,-8.72
2022-12-05T16:38:26.945Z,-8.64
2022-12-05T16:40:58.999Z,-8.76
2022-12-05T16:43:32.456Z,-8.79
2022-12-05T16:46:28.171Z,-8.74
2022-12-05T16:49:30.472Z,-8.93
2022-12-05T16:52:05.545Z,-8.94
2022-12-05T16:54:32.277Z,-8.82
2022-12-05T16:56:59.917Z,-8.91
2022-12-05T16:59:35.012Z,-9.03
2022-12-05T17:02:03.587Z,-8.87
2022-12-05T17:04:31.633Z,-8.88
2022-12-05T17:06:58.360Z,-8.87
2022-12-05T17:09:25.016Z,-8.94
2022-12-05T17:11:54.599Z,-8.89
2022-12-05T17:14:21.572Z,-8.94
2022-12-05T17:16:48.334Z,-9.04
2022-12-05T17:19:15.048Z,-9.01
2022-12-05T17:21:42.297Z,-9.07
2022-12-05T17:24:16.354Z,-9.12
2022-12-05T17:26:43.292Z,-9.06
2022-12-05T17:29:10.308Z,-9.22
2022-12-05T17:31:37.119Z,-9.17
2022-12-05T17:34:06.127Z,-9.35
2022-12-05T17:36:32.799Z,-9.40
2022-12-05T17:38:59.399Z,-9.32
2022-12-05T17:41:26.463Z,-9.32
2022-12-05T17:43:53.352Z,-9.36
2022-12-05T17:46:22.125Z,-9.35
2022-12-05T17:48:49.627Z,-9.47
2022-12-05T17:51:16.668Z,-9.37
2022-12-05T17:53:44.765Z,-9.29
2022-12-05T17:56:12.469Z,-9.36
2022-12-05T17:58:40.000Z,-9.53
2022-12-05T18:01:07.079Z,-9.28
2022-12-05T18:03:33.932Z,-9.35
2022-12-05T18:06:03.813Z,-9.37
2022-12-05T18:08:30.485Z,-9.38
2022-12-05T18:10:58.433Z,-9.37
2022-12-05T18:13:25.165Z,-9.35
2022-12-05T18:15:57.248Z,-9.33
2022-12-05T18:18:24.033Z,-9.49
2022-12-05T18:20:50.696Z,-9.51
2022-12-05T18:23:17.385Z,-9.46
2022-12-05T18:25:44.056Z,-9.49
2022-12-05T18:28:12.238Z,-9.43
2022-12-05T18:30:41.240Z,-9.45
2022-12-05T18:33:07.961Z,-9.55
2022-12-05T18:35:40.738Z,-9.55
2022-12-05T18:38:08.947Z,-9.62
2022-12-05T18:40:35.658Z,-9.65
2022-12-05T18:43:02.479Z,-9.45
2022-12-05T18:45:29.167Z,-9.46
2022-12-05T18:48:04.556Z,-9.52
2022-12-05T18:50:36.843Z,-9.37
2022-12-05T18:53:03.787Z,-9.47
2022-12-05T18:55:51.800Z,-9.49
2022-12-05T18:58:17.170Z,-9.46
2022-12-05T19:00:44.077Z,-9.46
2022-12-05T19:03:10.936Z,-9.57
2022-12-05T19:05:37.902Z,-9.52
2022-12-05T19:08:04.917Z,-9.54
2022-12-05T19:10:31.931Z,-9.58
2022-12-05T19:12:59.030Z,-9.50
2022-12-05T19:15:25.842Z,-9.34
2022-12-05T19:17:52.439Z,-9.40
2022-12-05T19:20:19.145Z,-9.40
2022-12-05T19:22:45.811Z,-9.30
2022-12-05T19:25:12.383Z,-9.40
2022-12-05T19:27:39.036Z,-9.39
2022-12-05T19:30:10.349Z,-9.43
2022-12-05T19:32:40.279Z,-9.19
2022-12-05T19:35:07.937Z,-9.21
2022-12-05T19:37:35.643Z,-9.18
2022-12-05T19:40:02.451Z,-9.17
2022-12-05T19:42:29.755Z,-9.24
2022-12-05T19:44:56.560Z,-9.02
2022-12-05T19:47:23.232Z,-9.05
2022-12-05T19:49:49.999Z,-8.99
2022-12-05T19:52:18.271Z,-8.92
2022-12-05T19:54:45.314Z,-8.86
2022-12-05T19:57:12.295Z,-8.70
2022-12-05T19:59:38.989Z,-8.73
2022-12-05T20:02:13.269Z,-8.68
2022-12-05T20:04:39.929Z,-8.63
2022-12-05T20:07:06.592Z,-8.55
2022-12-05T20:09:34.573Z,-8.55
2022-12-05T20:12:04.272Z,-8.57
2022-12-05T20:14:30.894Z,-8.55
2022-12-05T20:16:57.608Z,-8.55
2022-12-05T20:19:27.542Z,-8.46
2022-12-05T20:21:55.660Z,-8.45
2022-12-05T20:24:22.337Z,-8.38
2022-12-05T20:26:49.033Z,-8.36
2022-12-05T20:29:15.722Z,-8.39
2022-12-05T20:31:43.356Z,-8.43
2022-12-05T20:34:13.654Z,-8.38
2022-12-05T20:36:41.264Z,-8.33
2022-12-05T20:39:11.242Z,-8.34
2022-12-05T20:41:37.885Z,-8.37
2022-12-05T20:44:06.685Z,-8.45
2022-12-05T20:46:33.601Z,-8.43
2022-12-05T20:49:00.385Z,-8.46
2022-12-05T20:51:29.363Z,-8.51
2022-12-05T20:53:57.712Z,-8.47
2022-12-05T20:56:26.760Z,-8.55
2022-12-05T20:58:58.516Z,-8.52
2022-12-05T21:01:26.478Z,-8.54
2022-12-05T21:03:54.095Z,-8.59
2022-12-05T21:06:28.750Z,-8.64
2022-12-05T21:08:55.973Z,-8.64
2022-12-05T21:11:23.968Z,-8.68
2022-12-05T21:13:51.120Z,-8.78
2022-12-05T21:16:19.750Z,-8.76
2022-12-05T21:18:46.902Z,-8.73
2022-12-05T21:21:16.736Z,-8.71
2022-12-05T21:23:44.847Z,-8.79
2022-12-05T21:26:14.672Z,-8.68
2022-12-05T21:28:42.623Z,-8.71
2022-12-05T21:31:16.777Z,-8.74
2022-12-05T21:33:47.610Z,-8.80
2022-12-05T21:36:14.899Z,-8.92
2022-12-05T21:38:41.564Z,-8.89
2022-12-05T21:41:08.484Z,-8.88
2022-12-05T21:43:36.433Z,-8.92
2022-12-05T21:46:03.977Z,-8.90
2022-12-05T21:48:30.950Z,-8.93
2022-12-05T21:50:57.915Z,-8.93
2022-12-05T21:53:24.914Z,-8.91
2022-12-05T21:56:06.893Z,-8.94
2022-12-05T21:58:36.888Z,-8.98
2022-12-05T22:01:06.547Z,-8.94
2022-12-05T22:03:33.490Z,-8.92
2022-12-05T22:06:05.614Z,-8.99
2022-12-05T22:08:32.610Z,-9.04
2022-12-05T22:11:07.181Z,-9.00
2022-12-05T22:13:34.256Z,-9.10
2022-12-05T22:16:01.685Z,-9.10
2022-12-05T22:18:28.753Z,-9.10
2022-12-05T22:20:59.870Z,-9.12
2022-12-05T22:23:27.402Z,-9.12
2022-12-05T22:26:04.937Z,-9.14
2022-12-05T22:28:31.931Z,-9.13
2022-12-05T22:31:01.343Z,-9.25
2022-12-05T22:33:28.783Z,-9.18
2022-12-05T22:35:57.338Z,-9.23
2022-12-05T22:38:25.300Z,-9.34
2022-12-05T22:40:56.318Z,-9.25
2022-12-05T22:43:24.375Z,-9.45
2022-12-05T22:45:51.682Z,-9.28
2022-12-05T22:48:18.858Z,-9.34
2022-12-05T22:50:49.950Z,-9.30
2022-12-05T22:53:19.326Z,-9.37
2022-12-05T22:55:45.970Z,-9.40
2022-12-05T22:58:12.760Z,-9.56
2022-12-05T23:00:39.387Z,-9.53
2022-12-05T23:03:06.066Z,-9.38
2022-12-05T23:05:32.906Z,-9.38
2022-12-05T23:07:59.581Z,-9.40
2022-12-05T23:10:26.258Z,-9.43
2022-12-05T23:12:52.980Z,-9.42
2022-12-05T23:15:21.971Z,-9.38
2022-12-05T23:17:49.104Z,-9.33
2022-12-05T23:20:16.037Z,-9.26
2022-12-05T23:22:42.668Z,-9.24
2022-12-05T23:25:09.947Z,-9.20
2022-12-05T23:27:36.686Z,-9.19
2022-12-05T23:30:03.667Z,-9.12
2022-12-05T23:32:30.466Z,-9.12
2022-12-05T23:34:57.097Z,-9.09
2022-12-05T23:37:23.861Z,-9.03
2022-12-05T23:39:50.620Z,-9.04
2022-12-05T23:42:17.350Z,-9.03
2022-12-05T23:44:44.009Z,-9.06
2022-12-05T23:47:10.770Z,-9.07
2022-12-05T23:49:37.501Z,-9.10
2022-12-05T23:52:04.244Z,-9.11
2022-12-05T23:54:30.878Z,-9.18
2022-12-05T23:56:57.485Z,-9.12
2022-12-05T23:59:24.335Z,-9.17
